首页
METAR-TAF:

METAR-TAF

机场 :

Gastonia Municipal Airport

Gastonia, 北卡罗来纳州, 美国

纬度: 35-11-48N, 经度: 081-09-21W, 海拔: 243米

当前天气观测

该预报发布于1小时和0分钟前的18:54 UTC
风速7节,风向北转东北
温度 15°C
湿度 44%
气压 1015 hPa
能見度: 16.1公里
天空无云

METAR: KAKH 171854Z AUTO 02007KT 10SM CLR 15/03 A2998 RMK AO2 SLP152 T01500033

时间: 14:54 (19:54 UTC)


TAF: 丢失

超过4000个机场的气象观测和天气预报(METAR&TAF报告)。

可查询的气象台以黄色和红色小点在地图上表示。

将鼠标移到小点上方,可查看气象台名称。

然后点击查看天气观测和预报。

如需切换地图:点击带黑十字的绿色按钮放大地图;点击带横线的绿色按钮缩小地图;或者点击绿色箭头查看邻近地区的地图。


METAR-TAF: